createdAt,value
2023-01-19T00:01:02.421Z,96.20
2023-01-19T00:03:29.326Z,96.20
2023-01-19T00:05:56.170Z,96.20
2023-01-19T00:08:23.070Z,96.30
2023-01-19T00:10:53.812Z,96.20
2023-01-19T00:13:20.817Z,96.20
2023-01-19T00:15:47.819Z,96.40
2023-01-19T00:18:15.249Z,96.40
2023-01-19T00:20:44.709Z,96.30
2023-01-19T00:23:11.575Z,96.30
2023-01-19T00:25:49.257Z,96.30
2023-01-19T00:28:18.010Z,96.30
2023-01-19T00:30:45.558Z,96.30
2023-01-19T00:33:16.223Z,96.40
2023-01-19T00:35:43.268Z,96.40
2023-01-19T00:38:13.500Z,96.40
2023-01-19T00:40:40.421Z,96.30
2023-01-19T00:43:07.225Z,96.30
2023-01-19T00:45:34.331Z,96.40
2023-01-19T00:48:01.630Z,96.40
2023-01-19T00:50:30.260Z,96.40
2023-01-19T00:52:57.683Z,96.40
2023-01-19T00:55:24.775Z,96.40
2023-01-19T00:57:51.626Z,96.30
2023-01-19T01:00:20.105Z,96.20
2023-01-19T01:02:48.090Z,96.20
2023-01-19T01:05:15.037Z,96.20
2023-01-19T01:07:44.424Z,96.10
2023-01-19T01:10:20.326Z,96.10
2023-01-19T01:12:56.634Z,96.00
2023-01-19T01:15:26.589Z,96.00
2023-01-19T01:17:53.908Z,96.10
2023-01-19T01:20:23.983Z,96.10
2023-01-19T01:22:52.858Z,96.10
2023-01-19T01:25:22.672Z,96.10
2023-01-19T01:27:49.811Z,95.90
2023-01-19T01:30:17.271Z,95.80
2023-01-19T01:32:44.184Z,95.60
2023-01-19T01:35:11.537Z,95.60
2023-01-19T01:37:38.849Z,95.60
2023-01-19T01:40:06.985Z,95.70
2023-01-19T01:42:35.337Z,95.70
2023-01-19T01:45:07.572Z,95.70
2023-01-19T01:47:37.260Z,95.70
2023-01-19T01:50:20.996Z,95.70
2023-01-19T01:53:06.819Z,95.80
2023-01-19T01:55:40.543Z,96.00
2023-01-19T01:58:09.561Z,95.90
2023-01-19T02:00:56.120Z,95.90
2023-01-19T02:03:25.078Z,96.00
2023-01-19T02:05:53.615Z,96.00
2023-01-19T02:08:48.771Z,96.10
2023-01-19T02:11:35.820Z,96.10
2023-01-19T02:14:05.359Z,96.10
2023-01-19T02:19:26.740Z,96.20
2023-01-19T02:22:04.149Z,96.30
2023-01-19T02:24:31.511Z,96.30
2023-01-19T02:26:59.807Z,96.00
2023-01-19T02:29:27.569Z,96.00
2023-01-19T02:31:56.162Z,96.10
2023-01-19T02:34:23.412Z,96.10
2023-01-19T02:37:22.964Z,96.00
2023-01-19T02:39:54.248Z,96.00
2023-01-19T02:42:22.984Z,96.00
2023-01-19T02:44:53.346Z,96.10
2023-01-19T02:47:20.308Z,96.30
2023-01-19T02:50:00.762Z,96.30
2023-01-19T02:52:28.246Z,96.30
2023-01-19T02:55:15.341Z,96.20
2023-01-19T02:58:07.290Z,96.10
2023-01-19T03:00:46.634Z,96.20
2023-01-19T03:03:37.072Z,96.30
2023-01-19T03:06:11.826Z,96.50
2023-01-19T03:09:01.435Z,96.20
2023-01-19T03:11:33.518Z,96.20
2023-01-19T03:14:14.608Z,96.20
2023-01-19T03:16:55.116Z,96.50
2023-01-19T03:19:38.194Z,96.20
2023-01-19T03:22:14.132Z,96.20
2023-01-19T03:24:45.889Z,96.20
2023-01-19T03:27:18.441Z,96.20
2023-01-19T03:29:50.926Z,96.30
2023-01-19T03:32:21.723Z,96.50
2023-01-19T03:34:50.312Z,96.30
2023-01-19T03:37:19.627Z,96.30
2023-01-19T03:39:46.693Z,96.30
2023-01-19T03:42:15.840Z,96.30
2023-01-19T03:44:45.221Z,96.30
2023-01-19T03:47:14.386Z,96.20
2023-01-19T03:49:44.338Z,96.20
2023-01-19T03:52:12.301Z,96.20
2023-01-19T03:54:40.941Z,96.30
2023-01-19T03:57:07.831Z,96.30
2023-01-19T03:59:35.097Z,96.20
2023-01-19T04:02:02.410Z,96.30
2023-01-19T04:04:29.333Z,96.20
2023-01-19T04:06:56.204Z,96.20
2023-01-19T04:09:23.110Z,96.30
2023-01-19T04:11:49.904Z,96.20
2023-01-19T04:14:16.912Z,96.10
2023-01-19T04:16:43.716Z,96.20
2023-01-19T04:19:10.709Z,96.30
2023-01-19T04:21:37.557Z,96.20
2023-01-19T04:24:04.528Z,96.20
2023-01-19T04:26:31.325Z,96.10
2023-01-19T04:28:58.345Z,95.90
2023-01-19T04:31:25.389Z,95.90
2023-01-19T04:33:52.458Z,95.80
2023-01-19T04:36:19.310Z,95.80
2023-01-19T04:38:46.718Z,95.70
2023-01-19T04:41:13.750Z,95.80
2023-01-19T04:43:40.920Z,95.70
2023-01-19T04:46:07.986Z,95.60
2023-01-19T04:48:34.977Z,95.60
2023-01-19T04:51:02.075Z,95.60
2023-01-19T04:53:28.951Z,95.90
2023-01-19T04:55:56.153Z,95.60
2023-01-19T04:58:23.340Z,95.50
2023-01-19T05:00:51.266Z,95.40
2023-01-19T05:03:19.326Z,95.40
2023-01-19T05:05:46.756Z,95.40
2023-01-19T05:08:13.658Z,95.30
2023-01-19T05:10:40.577Z,95.20
2023-01-19T05:13:07.379Z,95.30
2023-01-19T05:15:34.218Z,95.30
2023-01-19T05:18:01.122Z,95.50
2023-01-19T05:20:27.961Z,95.30
2023-01-19T05:22:54.864Z,95.40
2023-01-19T05:25:21.815Z,95.40
2023-01-19T05:27:48.797Z,95.50
2023-01-19T05:30:15.924Z,95.40
2023-01-19T05:32:42.787Z,95.50
2023-01-19T05:35:10.208Z,95.20
2023-01-19T05:37:37.082Z,95.30
2023-01-19T05:40:04.358Z,95.30
2023-01-19T05:42:32.836Z,95.10
2023-01-19T05:45:00.377Z,95.20
2023-01-19T05:47:30.029Z,95.40
2023-01-19T05:49:57.177Z,95.30
2023-01-19T05:52:25.161Z,95.30
2023-01-19T05:54:52.394Z,95.30
2023-01-19T05:57:19.304Z,95.40
2023-01-19T05:59:46.397Z,95.50
2023-01-19T06:02:13.596Z,95.60
2023-01-19T06:04:40.447Z,95.50
2023-01-19T06:07:07.440Z,95.30
2023-01-19T06:09:34.329Z,95.40
2023-01-19T06:12:01.445Z,95.40
2023-01-19T06:14:28.423Z,95.50
2023-01-19T06:16:55.346Z,95.30
2023-01-19T06:19:22.170Z,95.30
2023-01-19T06:21:52.199Z,95.30
2023-01-19T06:24:19.520Z,95.40
2023-01-19T06:26:53.535Z,95.40
2023-01-19T06:29:22.017Z,95.30
2023-01-19T06:31:49.026Z,95.40
2023-01-19T06:34:15.934Z,95.40
2023-01-19T06:36:42.777Z,95.30
2023-01-19T06:39:09.795Z,95.30
2023-01-19T06:41:36.836Z,95.30
2023-01-19T06:44:04.129Z,95.30
2023-01-19T06:46:31.735Z,95.50
2023-01-19T06:48:58.550Z,95.60
2023-01-19T06:51:25.626Z,95.60
2023-01-19T06:53:52.572Z,95.60
2023-01-19T06:56:19.500Z,96.00
2023-01-19T06:58:48.239Z,96.70
2023-01-19T07:01:15.349Z,96.90
2023-01-19T07:03:42.333Z,96.80
2023-01-19T07:06:09.601Z,96.40
2023-01-19T07:08:37.733Z,95.80
2023-01-19T07:11:27.004Z,95.40
2023-01-19T07:13:55.470Z,95.30
2023-01-19T07:16:22.540Z,95.10
2023-01-19T07:18:50.177Z,95.10
2023-01-19T07:21:17.184Z,95.20
2023-01-19T07:23:44.020Z,95.10
2023-01-19T07:26:11.238Z,95.10
2023-01-19T07:28:38.188Z,95.00
2023-01-19T07:31:06.195Z,95.10
2023-01-19T07:33:57.288Z,95.20
2023-01-19T07:36:24.979Z,95.40
2023-01-19T07:38:52.519Z,95.10
2023-01-19T07:41:19.877Z,95.10
2023-01-19T07:43:47.262Z,95.10
2023-01-19T07:46:14.680Z,95.10
2023-01-19T07:48:42.075Z,95.10
2023-01-19T07:51:12.957Z,95.00
2023-01-19T07:53:42.007Z,95.00
2023-01-19T07:56:09.085Z,95.00
2023-01-19T07:58:36.129Z,94.90
2023-01-19T08:01:10.920Z,95.00
2023-01-19T08:03:38.496Z,94.90
2023-01-19T08:06:06.152Z,95.00
2023-01-19T08:08:33.893Z,94.90
2023-01-19T08:11:00.838Z,94.90
2023-01-19T08:13:27.913Z,94.90
2023-01-19T08:15:55.127Z,95.00
2023-01-19T08:18:22.087Z,94.80
2023-01-19T08:20:49.083Z,94.90
2023-01-19T08:23:17.989Z,94.90
2023-01-19T08:25:46.030Z,94.90
2023-01-19T08:28:14.994Z,94.90
2023-01-19T08:30:44.384Z,95.00
2023-01-19T08:33:14.473Z,94.80
2023-01-19T08:35:43.491Z,94.80
2023-01-19T08:38:11.073Z,94.80
2023-01-19T08:40:40.547Z,94.90
2023-01-19T08:43:10.642Z,94.70
2023-01-19T08:45:41.411Z,94.50
2023-01-19T08:48:08.737Z,94.60
2023-01-19T08:50:35.705Z,94.70
2023-01-19T08:53:06.455Z,94.70
2023-01-19T08:55:35.809Z,94.90
2023-01-19T08:58:06.362Z,95.00
2023-01-19T09:00:34.974Z,94.90
2023-01-19T09:03:04.318Z,94.80
2023-01-19T09:05:35.558Z,95.00
2023-01-19T09:08:04.071Z,94.90
2023-01-19T09:10:35.398Z,94.90
2023-01-19T09:13:08.556Z,94.90
2023-01-19T09:15:37.654Z,94.90
2023-01-19T09:18:07.125Z,95.10
2023-01-19T09:20:36.653Z,95.00
2023-01-19T09:23:03.550Z,95.10
2023-01-19T09:25:30.814Z,95.10
2023-01-19T09:28:00.227Z,95.10
2023-01-19T09:30:27.871Z,95.00
2023-01-19T09:32:55.018Z,94.90
2023-01-19T09:35:21.948Z,94.90
2023-01-19T09:37:48.873Z,95.00
2023-01-19T09:40:18.708Z,95.10
2023-01-19T09:42:55.768Z,95.00
2023-01-19T09:45:28.839Z,95.00
2023-01-19T09:47:57.237Z,95.10
2023-01-19T09:50:47.473Z,95.00
2023-01-19T09:53:21.363Z,94.70
2023-01-19T09:55:50.019Z,94.70
2023-01-19T09:58:19.170Z,94.60
2023-01-19T10:00:55.167Z,94.50
2023-01-19T10:03:23.953Z,94.50
2023-01-19T10:06:04.927Z,94.70
2023-01-19T10:08:45.127Z,94.90
2023-01-19T10:11:52.625Z,95.10
2023-01-19T10:14:29.762Z,95.00
2023-01-19T10:17:18.103Z,94.90
2023-01-19T10:19:49.952Z,94.80
2023-01-19T10:22:22.531Z,94.40
2023-01-19T10:24:54.809Z,94.40
2023-01-19T10:27:30.481Z,94.30
2023-01-19T10:29:58.361Z,94.30
2023-01-19T10:32:35.929Z,94.50
2023-01-19T10:35:14.992Z,94.60
2023-01-19T10:37:44.680Z,94.50
2023-01-19T10:40:11.664Z,94.30
2023-01-19T10:42:41.131Z,94.30
2023-01-19T10:45:23.760Z,94.00
2023-01-19T10:47:52.774Z,93.80
2023-01-19T10:50:25.868Z,93.90
2023-01-19T10:52:59.026Z,93.90
2023-01-19T10:55:30.297Z,94.00
2023-01-19T10:57:59.270Z,93.90
2023-01-19T11:00:29.295Z,93.90
2023-01-19T11:02:56.363Z,93.70
2023-01-19T11:05:26.566Z,94.10
2023-01-19T11:07:53.694Z,94.20
2023-01-19T11:10:26.530Z,94.10
2023-01-19T11:13:15.832Z,94.40
2023-01-19T11:15:57.544Z,94.20
2023-01-19T11:18:26.569Z,94.20
2023-01-19T11:20:55.597Z,94.40
2023-01-19T11:23:25.759Z,94.20
2023-01-19T11:25:54.617Z,93.10
2023-01-19T11:28:45.502Z,93.40
2023-01-19T11:31:15.563Z,93.80
2023-01-19T11:33:50.563Z,93.70
2023-01-19T11:36:19.128Z,93.70
2023-01-19T11:38:50.414Z,93.50
2023-01-19T11:41:22.773Z,93.50
2023-01-19T11:43:53.691Z,93.40
2023-01-19T11:46:22.966Z,93.40
2023-01-19T11:49:01.848Z,93.50
2023-01-19T11:51:35.510Z,93.50
2023-01-19T11:54:14.120Z,93.60
2023-01-19T11:56:41.518Z,93.40
2023-01-19T11:59:12.570Z,93.40
2023-01-19T12:01:46.695Z,93.20
2023-01-19T12:04:32.707Z,93.40
2023-01-19T12:07:06.968Z,93.50
2023-01-19T12:09:42.718Z,93.40
2023-01-19T12:12:29.914Z,93.70
2023-01-19T12:15:01.537Z,93.80
2023-01-19T12:17:35.254Z,93.90
2023-01-19T12:20:08.520Z,94.00
2023-01-19T12:22:45.358Z,94.10
2023-01-19T12:25:22.838Z,94.10
2023-01-19T12:27:50.645Z,94.00
2023-01-19T12:30:19.546Z,93.70
2023-01-19T12:32:46.420Z,93.60
2023-01-19T12:35:51.065Z,93.50
2023-01-19T12:38:40.140Z,93.50
2023-01-19T12:41:27.987Z,93.00
2023-01-19T12:44:16.321Z,93.10
2023-01-19T12:46:54.593Z,93.10
2023-01-19T12:49:33.083Z,92.90
2023-01-19T12:52:29.229Z,92.90
2023-01-19T12:55:13.734Z,92.40
2023-01-19T12:57:53.677Z,92.30
2023-01-19T13:00:23.311Z,92.70
2023-01-19T13:02:52.006Z,92.70
2023-01-19T13:05:32.857Z,92.60
2023-01-19T13:08:04.770Z,92.50
2023-01-19T13:10:59.763Z,92.50
2023-01-19T13:13:27.927Z,92.40
2023-01-19T13:15:56.360Z,92.60
2023-01-19T13:18:39.239Z,92.50
2023-01-19T13:21:08.103Z,92.50
2023-01-19T13:23:58.933Z,92.70
2023-01-19T13:26:38.608Z,92.40
2023-01-19T13:29:07.563Z,92.30
2023-01-19T13:31:39.885Z,92.40
2023-01-19T13:34:19.684Z,92.40
2023-01-19T13:36:47.519Z,92.40
2023-01-19T13:39:18.769Z,92.40
2023-01-19T13:41:49.102Z,92.40
2023-01-19T13:44:25.474Z,92.70
2023-01-19T13:46:54.198Z,93.10
2023-01-19T13:49:31.731Z,93.00
2023-01-19T13:52:04.704Z,93.00
2023-01-19T13:54:31.690Z,92.90
2023-01-19T13:56:58.488Z,92.90
2023-01-19T13:59:25.432Z,93.20
2023-01-19T14:01:54.203Z,93.00
2023-01-19T14:04:30.637Z,93.10
2023-01-19T14:07:23.271Z,93.00
2023-01-19T14:10:02.807Z,93.00
2023-01-19T14:12:29.946Z,92.90
2023-01-19T14:14:56.945Z,92.90
2023-01-19T14:17:29.938Z,92.80
2023-01-19T14:19:58.943Z,93.00
2023-01-19T14:22:46.389Z,93.20
2023-01-19T14:25:29.314Z,92.90
2023-01-19T14:28:39.465Z,92.80
2023-01-19T14:31:21.908Z,92.70
2023-01-19T14:33:51.475Z,92.70
2023-01-19T14:36:21.417Z,92.60
2023-01-19T14:38:49.966Z,92.60
2023-01-19T14:41:35.620Z,92.60
2023-01-19T14:44:03.169Z,92.60
2023-01-19T14:46:30.258Z,92.70
2023-01-19T14:49:02.856Z,92.60
2023-01-19T14:51:31.335Z,92.60
2023-01-19T14:54:00.845Z,92.60
2023-01-19T14:56:32.686Z,92.70
2023-01-19T14:59:02.266Z,92.50
2023-01-19T15:01:29.476Z,93.10
2023-01-19T15:03:57.096Z,92.80
2023-01-19T15:06:25.576Z,92.80
2023-01-19T15:08:53.568Z,92.70
2023-01-19T15:11:26.688Z,92.70
2023-01-19T15:13:55.181Z,92.80
2023-01-19T15:16:23.495Z,92.80
2023-01-19T15:18:50.499Z,92.80
2023-01-19T15:21:23.508Z,93.00
2023-01-19T15:23:51.133Z,93.00
2023-01-19T15:26:20.737Z,93.00
2023-01-19T15:28:51.023Z,93.00
2023-01-19T15:31:26.109Z,93.20
2023-01-19T15:33:53.138Z,93.20
2023-01-19T15:36:21.772Z,93.20
2023-01-19T15:38:51.064Z,93.20
2023-01-19T15:41:27.559Z,93.20
2023-01-19T15:43:54.614Z,93.40
2023-01-19T15:46:22.969Z,93.60
2023-01-19T15:48:50.897Z,93.80
2023-01-19T15:51:20.262Z,93.70
2023-01-19T15:53:47.982Z,93.80
2023-01-19T15:56:16.946Z,93.60
2023-01-19T15:58:44.561Z,93.60
2023-01-19T16:01:16.158Z,93.60
2023-01-19T16:03:43.332Z,93.60
2023-01-19T16:06:10.900Z,93.70
2023-01-19T16:08:38.413Z,93.60
2023-01-19T16:11:16.052Z,93.60
2023-01-19T16:13:46.375Z,93.60
2023-01-19T16:16:18.803Z,93.60
2023-01-19T16:18:45.969Z,93.70
2023-01-19T16:21:12.987Z,93.70
2023-01-19T16:23:39.921Z,93.70
2023-01-19T16:26:22.126Z,93.80
2023-01-19T16:28:49.145Z,93.90
2023-01-19T16:31:16.600Z,94.00
2023-01-19T16:33:45.223Z,94.00
2023-01-19T16:36:29.576Z,93.90
2023-01-19T16:39:02.226Z,94.20
2023-01-19T16:41:29.364Z,94.30
2023-01-19T16:43:57.679Z,94.00
2023-01-19T16:46:27.244Z,94.10
2023-01-19T16:48:59.580Z,94.10
2023-01-19T16:51:26.573Z,94.20
2023-01-19T16:53:53.423Z,94.20
2023-01-19T16:56:20.305Z,94.30
2023-01-19T16:58:47.184Z,94.40
2023-01-19T17:01:19.657Z,94.30
2023-01-19T17:03:47.025Z,94.50
2023-01-19T17:06:16.198Z,94.40
2023-01-19T17:08:43.061Z,94.60
2023-01-19T17:11:12.018Z,94.60
2023-01-19T17:13:39.489Z,94.40
2023-01-19T17:16:06.957Z,94.40
2023-01-19T17:18:35.507Z,94.40
2023-01-19T17:21:04.368Z,94.50
2023-01-19T17:23:31.453Z,94.50
2023-01-19T17:25:59.065Z,94.50
2023-01-19T17:28:26.347Z,94.50
2023-01-19T17:30:53.826Z,94.50
2023-01-19T17:33:23.027Z,94.60
2023-01-19T17:35:50.453Z,94.50
2023-01-19T17:38:17.604Z,94.60
2023-01-19T17:40:44.677Z,94.80
2023-01-19T17:43:11.648Z,94.80
2023-01-19T17:45:38.624Z,94.60
2023-01-19T17:48:05.869Z,94.60
2023-01-19T17:50:35.111Z,94.70
2023-01-19T17:53:03.017Z,94.40
2023-01-19T17:55:33.163Z,94.50
2023-01-19T17:58:00.477Z,94.40
2023-01-19T18:00:28.092Z,94.30
2023-01-19T18:02:55.563Z,94.30
2023-01-19T18:05:23.401Z,94.20
2023-01-19T18:07:50.356Z,94.20
2023-01-19T18:10:20.372Z,94.20
2023-01-19T18:12:47.357Z,94.30
2023-01-19T18:15:16.818Z,94.30
2023-01-19T18:17:44.335Z,94.40
2023-01-19T18:20:14.037Z,94.50
2023-01-19T18:22:41.493Z,94.60
2023-01-19T18:25:08.754Z,94.60
2023-01-19T18:27:35.914Z,94.60
2023-01-19T18:30:02.941Z,94.40
2023-01-19T18:32:29.912Z,94.40
2023-01-19T18:34:58.087Z,94.40
2023-01-19T18:37:25.528Z,94.40
2023-01-19T18:39:54.781Z,94.40
2023-01-19T18:42:24.871Z,94.40
2023-01-19T18:44:52.203Z,94.50
2023-01-19T18:47:19.286Z,94.50
2023-01-19T18:49:46.354Z,94.60
2023-01-19T18:52:13.398Z,94.40
2023-01-19T18:54:40.386Z,94.40
2023-01-19T18:57:07.447Z,94.40
2023-01-19T18:59:34.589Z,94.30
2023-01-19T19:02:01.697Z,94.40
2023-01-19T19:04:28.752Z,94.50
2023-01-19T19:06:55.749Z,94.50
2023-01-19T19:09:25.951Z,94.40
2023-01-19T19:11:53.038Z,94.40
2023-01-19T19:14:20.266Z,94.40
2023-01-19T19:16:47.335Z,94.30
2023-01-19T19:19:15.510Z,94.20
2023-01-19T19:21:43.458Z,94.20
2023-01-19T19:24:15.031Z,94.30
2023-01-19T19:26:45.217Z,94.20
2023-01-19T19:29:12.566Z,94.10
2023-01-19T19:31:39.561Z,94.10
2023-01-19T19:34:06.600Z,94.00
2023-01-19T19:36:34.195Z,93.80
2023-01-19T19:39:01.495Z,93.60
2023-01-19T19:41:30.113Z,93.80
2023-01-19T19:43:57.291Z,93.60
2023-01-19T19:46:25.845Z,93.90
2023-01-19T19:48:53.939Z,94.00
2023-01-19T19:51:25.562Z,93.80
2023-01-19T19:53:54.833Z,93.90
2023-01-19T19:56:23.961Z,93.70
2023-01-19T19:58:55.293Z,93.70
2023-01-19T20:01:27.629Z,93.70
2023-01-19T20:04:03.972Z,93.50
2023-01-19T20:06:30.988Z,93.70
2023-01-19T20:08:57.914Z,93.70
2023-01-19T20:11:27.886Z,93.80
2023-01-19T20:13:55.302Z,93.80
2023-01-19T20:16:23.418Z,93.90
2023-01-19T20:18:54.182Z,93.90
2023-01-19T20:21:27.060Z,93.70
2023-01-19T20:23:59.628Z,93.80
2023-01-19T20:26:29.745Z,93.80
2023-01-19T20:29:07.789Z,93.70
2023-01-19T20:31:38.537Z,93.60
2023-01-19T20:34:08.153Z,93.60
2023-01-19T20:36:37.168Z,93.70
2023-01-19T20:39:09.550Z,93.80
2023-01-19T20:41:43.229Z,93.80
2023-01-19T20:44:15.757Z,94.00
2023-01-19T20:46:42.893Z,93.90
2023-01-19T20:49:10.157Z,94.00
2023-01-19T20:51:42.183Z,94.10
2023-01-19T20:54:13.982Z,94.10
2023-01-19T20:56:45.807Z,94.20
2023-01-19T20:59:15.350Z,94.20
2023-01-19T21:01:43.100Z,94.20
2023-01-19T21:04:13.929Z,94.30
2023-01-19T21:06:42.344Z,94.30
2023-01-19T21:09:11.834Z,94.30
2023-01-19T21:11:44.455Z,94.40
2023-01-19T21:14:11.854Z,94.70
2023-01-19T21:16:42.774Z,95.00
2023-01-19T21:19:11.150Z,95.00
2023-01-19T21:21:38.160Z,94.80
2023-01-19T21:24:05.315Z,94.50
2023-01-19T21:26:33.655Z,94.10
2023-01-19T21:29:01.865Z,94.00
2023-01-19T21:31:29.564Z,93.90
2023-01-19T21:33:58.131Z,93.90
2023-01-19T21:36:25.526Z,93.80
2023-01-19T21:38:52.753Z,93.90
2023-01-19T21:41:20.176Z,93.90
2023-01-19T21:43:47.156Z,93.90
2023-01-19T21:46:20.165Z,93.90
2023-01-19T21:48:47.640Z,94.00
2023-01-19T21:51:15.398Z,94.00
2023-01-19T21:53:42.460Z,94.00
2023-01-19T21:56:10.620Z,94.00
2023-01-19T21:58:37.590Z,94.10
2023-01-19T22:01:08.692Z,94.10
2023-01-19T22:03:35.619Z,94.00
2023-01-19T22:06:07.127Z,94.00
2023-01-19T22:08:34.806Z,94.10
2023-01-19T22:11:05.355Z,94.10
2023-01-19T22:13:33.527Z,94.00
2023-01-19T22:16:02.298Z,94.00
2023-01-19T22:18:29.954Z,94.10
2023-01-19T22:21:06.420Z,94.00
2023-01-19T22:23:33.305Z,94.20
2023-01-19T22:26:00.295Z,94.10
2023-01-19T22:28:27.134Z,94.00
2023-01-19T22:30:53.951Z,94.00
2023-01-19T22:33:20.849Z,93.90
2023-01-19T22:35:47.637Z,94.00
2023-01-19T22:38:14.447Z,94.00
2023-01-19T22:40:41.492Z,94.00
2023-01-19T22:43:09.862Z,93.90
2023-01-19T22:45:44.715Z,94.10
2023-01-19T22:48:12.077Z,94.10
2023-01-19T22:50:41.246Z,94.10
2023-01-19T22:53:08.222Z,93.90
2023-01-19T22:55:34.992Z,93.90
2023-01-19T22:58:01.851Z,93.80
2023-01-19T23:00:28.613Z,93.80
2023-01-19T23:02:55.429Z,93.80
2023-01-19T23:05:22.541Z,93.60
2023-01-19T23:07:49.361Z,93.70
2023-01-19T23:10:16.551Z,93.80
2023-01-19T23:12:43.329Z,93.90
2023-01-19T23:15:10.473Z,94.10
2023-01-19T23:17:37.535Z,94.10
2023-01-19T23:20:04.910Z,94.10
2023-01-19T23:22:31.665Z,94.20
2023-01-19T23:24:58.493Z,94.20
2023-01-19T23:27:25.248Z,94.20
2023-01-19T23:29:53.082Z,94.30
2023-01-19T23:32:19.956Z,94.10
2023-01-19T23:34:47.649Z,94.40
2023-01-19T23:37:14.887Z,94.10
2023-01-19T23:39:41.855Z,94.10
2023-01-19T23:42:08.629Z,94.10
2023-01-19T23:44:35.908Z,94.10
2023-01-19T23:47:02.733Z,94.00
2023-01-19T23:49:29.558Z,94.00
2023-01-19T23:51:56.447Z,94.00
2023-01-19T23:54:23.336Z,94.00
2023-01-19T23:56:50.231Z,94.10
2023-01-19T23:59:17.109Z,94.00
